Time;durP1;ratioP1;P1;durP2;ratioP2;P2;SDS_P1;SDS_P2;PMS_P1;PMS_P2;Temp;Humidity;BMP_temperature;BMP_pressure;BME280_temperature;BME280_humidity;BME280_pressure;Samples;Min_cycle;Max_cycle;Signal;HPM_P1;HPM_P2
2022/06/17 07:19:07;;;;;;;7.50;1.98;;;;;;;20.78;83.32;100823.81;742132;1155;22895;-79
2022/06/17 07:34:10;;;;;;;4.05;1.90;;;;;;;21.02;78.73;100822.59;741034;1155;114316;-80
2022/06/17 07:49:13;;;;;;;2.03;1.57;;;;;;;21.69;76.19;100839.17;742538;1155;114449;-80
2022/06/17 08:04:16;;;;;;;3.43;1.70;;;;;;;23.12;74.64;100839.52;740806;1154;114425;-80
2022/06/17 08:19:19;;;;;;;3.33;1.20;;;;;;;24.24;72.04;100853.83;740095;1154;113727;-81
2022/06/17 08:34:21;;;;;;;2.18;1.18;;;;;;;24.61;69.18;100868.50;740280;1155;115144;-80
2022/06/17 08:49:46;;;;;;;1.08;0.95;;;;;;;25.22;66.81;100878.67;739959;1155;114347;-81
2022/06/17 09:05:00;;;;;;;7.08;1.25;;;;;;;24.65;66.37;100888.53;740896;1155;114138;-80
2022/06/17 09:20:06;;;;;;;1.23;0.93;;;;;;;25.64;65.52;100893.44;740486;1154;115336;-80
2022/06/17 09:35:25;;;;;;;2.55;1.20;;;;;;;25.91;64.59;100888.64;740005;1155;115221;-80
2022/06/17 09:50:36;;;;;;;4.50;1.38;;;;;;;25.21;63.62;100892.32;739942;1154;114713;-80
2022/06/17 10:06:03;;;;;;;2.08;0.90;;;;;;;26.71;63.80;100898.50;740375;1153;114049;-79
2022/06/17 10:21:30;;;;;;;1.30;0.88;;;;;;;27.52;62.06;100891.92;740017;1155;115287;-79
2022/06/17 10:36:33;;;;;;;1.30;0.85;;;;;;;27.98;60.65;100892.95;739953;1154;114661;-75
2022/06/17 10:51:37;;;;;;;2.63;1.10;;;;;;;28.53;59.42;100890.83;741452;1154;115671;-75
2022/06/17 11:06:51;;;;;;;1.38;1.03;;;;;;;28.69;57.14;100889.27;740191;1155;115295;-74
2022/06/17 11:21:58;;;;;;;2.28;1.30;;;;;;;28.08;56.47;100883.46;739896;1155;114221;-75
2022/06/17 11:37:25;;;;;;;1.13;1.00;;;;;;;28.23;56.69;100891.88;740191;1154;115323;-76
2022/06/17 11:52:33;;;;;;;2.53;1.60;;;;;;;26.66;57.47;100895.63;740044;1155;115302;-76
2022/06/17 12:07:38;;;;;;;2.55;1.50;;;;;;;25.32;59.95;100920.32;740328;1154;115285;-76
2022/06/17 12:22:49;;;;;;;1.77;1.67;;;;;;;25.29;63.11;100918.89;740816;1155;114709;-79
2022/06/17 12:38:07;;;;;;;2.25;1.23;;;;;;;26.83;61.63;100916.54;741057;1155;114016;-76
2022/06/17 12:53:22;;;;;;;2.93;1.70;;;;;;;27.72;59.59;100900.45;740396;1155;114664;-72
2022/06/17 13:08:50;;;;;;;4.35;1.80;;;;;;;27.73;56.73;100893.20;740060;1154;114874;-79
2022/06/17 13:24:04;;;;;;;1.55;1.00;;;;;;;28.00;55.44;100882.73;740210;1155;115344;-74
2022/06/17 13:39:14;;;;;;;2.47;1.93;;;;;;;28.37;55.43;100873.53;740433;1155;113926;-74
2022/06/17 13:54:43;;;;;;;1.65;1.20;;;;;;;28.38;53.96;100875.17;740652;1155;114841;-75
2022/06/17 14:09:46;;;;;;;4.80;2.90;;;;;;;29.35;53.19;100878.81;739781;1155;114203;-75
2022/06/17 14:24:48;;;;;;;4.98;2.05;;;;;;;28.80;52.03;100869.50;739828;1155;114754;-75
2022/06/17 14:39:57;;;;;;;2.07;1.30;;;;;;;28.49;53.22;100865.39;740231;1155;114233;-74
2022/06/17 14:55:19;;;;;;;3.57;1.67;;;;;;;27.12;54.50;100879.90;740342;1155;115570;-75
2022/06/17 15:10:28;;;;;;;4.60;1.58;;;;;;;27.47;56.28;100878.33;740073;1155;115426;-78
2022/06/17 15:26:11;;;;;;;7.48;1.58;;;;;;;28.08;55.89;100883.46;739950;1155;114668;-79
2022/06/17 15:41:32;;;;;;;5.25;2.48;;;;;;;28.27;56.53;100876.86;740002;1154;115500;-78
2022/06/17 15:56:38;;;;;;;2.80;1.78;;;;;;;27.86;56.83;100868.70;739936;1155;114616;-75
2022/06/17 16:11:40;;;;;;;2.55;1.25;;;;;;;27.70;56.41;100869.41;740198;1155;114241;-76
2022/06/17 16:26:46;;;;;;;6.20;4.30;;;;;;;27.76;56.76;100870.36;741146;1155;114785;-76
2022/06/17 16:57:38;;;;;;;2.63;1.50;;;;;;;27.23;57.85;100878.27;740379;1155;114357;-88
2022/06/17 17:12:42;;;;;;;4.47;1.60;;;;;;;26.89;58.21;100888.72;740162;1155;114584;-73
2022/06/17 17:27:45;;;;;;;1.95;1.40;;;;;;;26.30;58.73;100897.31;744180;1155;114978;-88
2022/06/17 17:42:48;;;;;;;3.93;1.93;;;;;;;25.55;60.25;100900.94;740034;1154;115017;-81
2022/06/17 17:57:54;;;;;;;4.23;2.10;;;;;;;25.02;61.46;100894.09;740666;1155;115449;-81
2022/06/17 18:12:58;;;;;;;6.95;4.28;;;;;;;24.56;63.24;100898.63;741337;1153;114637;-76
2022/06/17 18:28:00;;;;;;;16.50;7.08;;;;;;;23.88;65.02;100908.70;740261;1154;115474;-76
2022/06/17 18:43:05;;;;;;;14.00;5.65;;;;;;;23.22;66.75;100906.88;739740;1154;114980;-77
2022/06/17 18:58:08;;;;;;;12.03;3.87;;;;;;;22.72;68.24;100909.80;739838;1155;114800;-75
2022/06/17 19:28:33;;;;;;;6.23;3.50;;;;;;;21.74;71.25;100919.51;740602;1154;113878;-76
2022/06/17 19:43:36;;;;;;;21.60;7.55;;;;;;;20.90;73.00;100920.94;740960;1155;113979;-75
2022/06/17 19:58:38;;;;;;;11.53;5.55;;;;;;;20.43;75.17;100939.01;740352;1155;114910;-75
2022/06/17 20:13:41;;;;;;;6.03;3.50;;;;;;;19.91;77.19;100955.86;740294;1155;114191;-75
2022/06/17 20:28:44;;;;;;;7.80;4.33;;;;;;;19.75;78.81;100951.48;740017;1154;115602;-75
2022/06/17 20:43:46;;;;;;;48.95;18.75;;;;;;;19.25;79.90;100957.16;742071;1153;115051;-77
2022/06/17 20:58:50;;;;;;;24.93;10.93;;;;;;;19.01;82.02;100968.77;741042;1155;115398;-79
2022/06/17 21:13:52;;;;;;;12.48;6.28;;;;;;;18.68;82.60;100960.91;740366;1155;115139;-78
2022/06/17 21:28:55;;;;;;;9.70;4.93;;;;;;;18.38;84.55;100960.67;740261;1155;115087;-80
2022/06/17 21:43:58;;;;;;;31.50;13.63;;;;;;;18.20;86.26;100957.39;740257;1155;114941;-80
2022/06/17 21:59:00;;;;;;;20.57;11.10;;;;;;;17.93;87.53;100948.81;740423;1155;115139;-80
2022/06/17 22:14:15;;;;;;;9.08;5.83;;;;;;;17.70;88.60;100946.81;740353;1155;115808;-80
2022/06/17 22:29:32;;;;;;;12.45;6.43;;;;;;;17.46;90.41;100942.34;740446;1154;115620;-80
2022/06/17 22:44:34;;;;;;;7.80;5.15;;;;;;;17.16;90.92;100939.30;740699;1155;115302;-79
2022/06/17 22:59:36;;;;;;;16.70;7.30;;;;;;;16.99;91.65;100940.26;741618;1154;115514;-79
2022/06/17 23:14:38;;;;;;;13.65;7.30;;;;;;;16.70;92.63;100923.72;741100;1155;115269;-79
2022/06/17 23:29:41;;;;;;;10.35;6.85;;;;;;;16.37;94.08;100915.63;740403;1154;115692;-79
2022/06/17 23:44:44;;;;;;;13.88;7.88;;;;;;;16.37;95.13;100912.98;740183;1154;114194;-80
2022/06/17 23:59:46;;;;;;;14.43;8.15;;;;;;;16.18;95.58;100907.92;740576;1155;114359;-80
